sensor_id;sensor_type;location;lat;lon;timestamp;P1;durP1;ratioP1;P2;durP2;ratioP2
1048;SDS011;513;51.444;7.196;2022-10-16T00:00:44;5.57;;;3.40;;
1048;SDS011;513;51.444;7.196;2022-10-16T00:03:11;6.57;;;3.40;;
1048;SDS011;513;51.444;7.196;2022-10-16T00:05:38;4.30;;;3.27;;
1048;SDS011;513;51.444;7.196;2022-10-16T00:08:06;8.93;;;3.37;;
1048;SDS011;513;51.444;7.196;2022-10-16T00:10:34;8.57;;;3.67;;
1048;SDS011;513;51.444;7.196;2022-10-16T00:13:02;7.07;;;3.20;;
1048;SDS011;513;51.444;7.196;2022-10-16T00:15:29;6.03;;;3.60;;
1048;SDS011;513;51.444;7.196;2022-10-16T00:17:56;5.43;;;2.83;;
1048;SDS011;513;51.444;7.196;2022-10-16T00:20:23;5.83;;;3.20;;
1048;SDS011;513;51.444;7.196;2022-10-16T00:22:49;4.53;;;3.00;;
1048;SDS011;513;51.444;7.196;2022-10-16T00:25:16;8.10;;;3.27;;
1048;SDS011;513;51.444;7.196;2022-10-16T00:27:43;7.60;;;3.20;;
1048;SDS011;513;51.444;7.196;2022-10-16T00:30:11;3.63;;;3.00;;
1048;SDS011;513;51.444;7.196;2022-10-16T00:32:38;4.07;;;2.60;;
1048;SDS011;513;51.444;7.196;2022-10-16T00:35:04;6.93;;;3.00;;
1048;SDS011;513;51.444;7.196;2022-10-16T00:37:31;4.80;;;2.60;;
1048;SDS011;513;51.444;7.196;2022-10-16T00:39:58;6.20;;;2.80;;
1048;SDS011;513;51.444;7.196;2022-10-16T00:42:25;6.30;;;3.03;;
1048;SDS011;513;51.444;7.196;2022-10-16T00:44:52;4.67;;;3.10;;
1048;SDS011;513;51.444;7.196;2022-10-16T00:47:24;6.53;;;2.20;;
1048;SDS011;513;51.444;7.196;2022-10-16T00:49:55;5.80;;;2.73;;
1048;SDS011;513;51.444;7.196;2022-10-16T00:52:25;7.60;;;2.30;;
1048;SDS011;513;51.444;7.196;2022-10-16T00:54:51;4.90;;;2.37;;
1048;SDS011;513;51.444;7.196;2022-10-16T00:57:19;3.87;;;2.30;;
1048;SDS011;513;51.444;7.196;2022-10-16T00:59:47;6.13;;;2.40;;
1048;SDS011;513;51.444;7.196;2022-10-16T01:02:15;5.70;;;2.50;;
1048;SDS011;513;51.444;7.196;2022-10-16T01:04:44;5.03;;;2.43;;
1048;SDS011;513;51.444;7.196;2022-10-16T01:07:14;6.20;;;2.30;;
1048;SDS011;513;51.444;7.196;2022-10-16T01:09:52;3.90;;;2.57;;
1048;SDS011;513;51.444;7.196;2022-10-16T01:12:30;7.97;;;2.13;;
1048;SDS011;513;51.444;7.196;2022-10-16T01:15:06;6.33;;;2.10;;
1048;SDS011;513;51.444;7.196;2022-10-16T01:17:39;5.27;;;2.23;;
1048;SDS011;513;51.444;7.196;2022-10-16T01:20:11;4.03;;;2.33;;
1048;SDS011;513;51.444;7.196;2022-10-16T01:22:48;4.10;;;2.30;;
1048;SDS011;513;51.444;7.196;2022-10-16T01:26:04;3.50;;;2.33;;
1048;SDS011;513;51.444;7.196;2022-10-16T01:28:44;4.60;;;2.33;;
1048;SDS011;513;51.444;7.196;2022-10-16T01:31:17;5.10;;;2.40;;
1048;SDS011;513;51.444;7.196;2022-10-16T01:33:47;6.83;;;2.20;;
1048;SDS011;513;51.444;7.196;2022-10-16T01:36:21;3.87;;;2.13;;
1048;SDS011;513;51.444;7.196;2022-10-16T01:38:53;3.93;;;1.93;;
1048;SDS011;513;51.444;7.196;2022-10-16T01:41:26;2.57;;;2.20;;
1048;SDS011;513;51.444;7.196;2022-10-16T01:44:00;4.07;;;2.33;;
1048;SDS011;513;51.444;7.196;2022-10-16T01:46:30;2.83;;;2.27;;
1048;SDS011;513;51.444;7.196;2022-10-16T01:48:59;3.23;;;2.20;;
1048;SDS011;513;51.444;7.196;2022-10-16T01:51:27;3.17;;;2.13;;
1048;SDS011;513;51.444;7.196;2022-10-16T01:53:55;3.77;;;2.23;;
1048;SDS011;513;51.444;7.196;2022-10-16T01:56:25;4.33;;;2.30;;
1048;SDS011;513;51.444;7.196;2022-10-16T01:58:53;4.83;;;2.20;;
1048;SDS011;513;51.444;7.196;2022-10-16T02:01:24;3.07;;;2.30;;
1048;SDS011;513;51.444;7.196;2022-10-16T02:03:55;3.97;;;2.20;;
1048;SDS011;513;51.444;7.196;2022-10-16T02:06:25;5.00;;;2.20;;
1048;SDS011;513;51.444;7.196;2022-10-16T02:08:51;3.67;;;2.73;;
1048;SDS011;513;51.444;7.196;2022-10-16T02:11:19;3.53;;;2.10;;
1048;SDS011;513;51.444;7.196;2022-10-16T02:13:46;3.73;;;2.43;;
1048;SDS011;513;51.444;7.196;2022-10-16T02:16:16;5.73;;;2.50;;
1048;SDS011;513;51.444;7.196;2022-10-16T02:18:44;2.70;;;2.20;;
1048;SDS011;513;51.444;7.196;2022-10-16T02:21:13;3.57;;;2.33;;
1048;SDS011;513;51.444;7.196;2022-10-16T02:23:45;3.53;;;2.23;;
1048;SDS011;513;51.444;7.196;2022-10-16T02:26:18;2.57;;;2.27;;
1048;SDS011;513;51.444;7.196;2022-10-16T02:28:52;6.50;;;2.30;;
1048;SDS011;513;51.444;7.196;2022-10-16T02:31:26;2.20;;;2.00;;
1048;SDS011;513;51.444;7.196;2022-10-16T02:33:57;3.07;;;2.63;;
1048;SDS011;513;51.444;7.196;2022-10-16T02:36:26;4.23;;;1.80;;
1048;SDS011;513;51.444;7.196;2022-10-16T02:38:53;5.00;;;2.30;;
1048;SDS011;513;51.444;7.196;2022-10-16T02:41:21;2.63;;;1.83;;
1048;SDS011;513;51.444;7.196;2022-10-16T02:43:48;4.10;;;2.10;;
1048;SDS011;513;51.444;7.196;2022-10-16T02:46:15;2.83;;;1.80;;
1048;SDS011;513;51.444;7.196;2022-10-16T02:48:42;3.30;;;1.70;;
1048;SDS011;513;51.444;7.196;2022-10-16T02:51:10;5.30;;;1.87;;
1048;SDS011;513;51.444;7.196;2022-10-16T02:53:37;3.53;;;1.70;;
1048;SDS011;513;51.444;7.196;2022-10-16T02:56:04;2.87;;;1.70;;
1048;SDS011;513;51.444;7.196;2022-10-16T02:58:31;2.20;;;1.77;;
1048;SDS011;513;51.444;7.196;2022-10-16T03:00:57;2.30;;;1.63;;
1048;SDS011;513;51.444;7.196;2022-10-16T03:03:24;3.67;;;1.70;;
1048;SDS011;513;51.444;7.196;2022-10-16T03:05:51;3.87;;;1.87;;
1048;SDS011;513;51.444;7.196;2022-10-16T03:08:19;4.17;;;1.70;;
1048;SDS011;513;51.444;7.196;2022-10-16T03:10:48;3.27;;;1.60;;
1048;SDS011;513;51.444;7.196;2022-10-16T03:13:15;4.13;;;1.43;;
1048;SDS011;513;51.444;7.196;2022-10-16T03:15:41;2.03;;;1.53;;
1048;SDS011;513;51.444;7.196;2022-10-16T03:18:09;2.43;;;1.30;;
1048;SDS011;513;51.444;7.196;2022-10-16T03:20:36;2.87;;;1.20;;
1048;SDS011;513;51.444;7.196;2022-10-16T03:23:02;2.07;;;1.33;;
1048;SDS011;513;51.444;7.196;2022-10-16T03:25:30;1.40;;;1.30;;
1048;SDS011;513;51.444;7.196;2022-10-16T03:27:57;5.17;;;1.60;;
1048;SDS011;513;51.444;7.196;2022-10-16T03:30:23;1.70;;;1.17;;
1048;SDS011;513;51.444;7.196;2022-10-16T03:32:50;2.47;;;1.20;;
1048;SDS011;513;51.444;7.196;2022-10-16T03:35:18;2.60;;;1.20;;
1048;SDS011;513;51.444;7.196;2022-10-16T03:37:45;3.10;;;1.10;;
1048;SDS011;513;51.444;7.196;2022-10-16T03:40:12;5.33;;;1.27;;
1048;SDS011;513;51.444;7.196;2022-10-16T03:42:41;1.23;;;1.10;;
1048;SDS011;513;51.444;7.196;2022-10-16T03:45:09;4.03;;;1.43;;
1048;SDS011;513;51.444;7.196;2022-10-16T03:47:36;3.30;;;1.27;;
1048;SDS011;513;51.444;7.196;2022-10-16T03:50:03;1.30;;;1.20;;
1048;SDS011;513;51.444;7.196;2022-10-16T03:52:31;1.50;;;1.40;;
1048;SDS011;513;51.444;7.196;2022-10-16T03:54:57;2.70;;;1.23;;
1048;SDS011;513;51.444;7.196;2022-10-16T03:57:24;1.80;;;1.27;;
1048;SDS011;513;51.444;7.196;2022-10-16T03:59:52;4.60;;;1.30;;
1048;SDS011;513;51.444;7.196;2022-10-16T04:02:19;3.13;;;1.37;;
1048;SDS011;513;51.444;7.196;2022-10-16T04:04:45;1.90;;;1.57;;
1048;SDS011;513;51.444;7.196;2022-10-16T04:07:12;5.30;;;1.50;;
1048;SDS011;513;51.444;7.196;2022-10-16T04:09:39;3.37;;;1.27;;
1048;SDS011;513;51.444;7.196;2022-10-16T04:12:06;1.33;;;1.23;;
1048;SDS011;513;51.444;7.196;2022-10-16T04:14:33;3.77;;;1.20;;
1048;SDS011;513;51.444;7.196;2022-10-16T04:17:01;2.40;;;1.27;;
1048;SDS011;513;51.444;7.196;2022-10-16T04:19:28;1.57;;;1.17;;
1048;SDS011;513;51.444;7.196;2022-10-16T04:21:54;6.70;;;1.50;;
1048;SDS011;513;51.444;7.196;2022-10-16T04:24:21;6.70;;;1.50;;
1048;SDS011;513;51.444;7.196;2022-10-16T04:26:47;2.93;;;1.40;;
1048;SDS011;513;51.444;7.196;2022-10-16T04:29:14;4.13;;;1.30;;
1048;SDS011;513;51.444;7.196;2022-10-16T04:31:41;1.53;;;1.20;;
1048;SDS011;513;51.444;7.196;2022-10-16T04:34:09;1.40;;;1.30;;
1048;SDS011;513;51.444;7.196;2022-10-16T04:36:35;1.77;;;1.30;;
1048;SDS011;513;51.444;7.196;2022-10-16T04:39:02;2.03;;;1.50;;
1048;SDS011;513;51.444;7.196;2022-10-16T04:41:29;3.43;;;1.20;;
1048;SDS011;513;51.444;7.196;2022-10-16T04:43:55;2.80;;;1.13;;
1048;SDS011;513;51.444;7.196;2022-10-16T04:46:22;2.27;;;1.10;;
1048;SDS011;513;51.444;7.196;2022-10-16T04:48:49;2.57;;;1.53;;
1048;SDS011;513;51.444;7.196;2022-10-16T04:51:17;1.93;;;1.30;;
1048;SDS011;513;51.444;7.196;2022-10-16T04:53:44;7.43;;;1.70;;
1048;SDS011;513;51.444;7.196;2022-10-16T04:56:10;1.37;;;1.20;;
1048;SDS011;513;51.444;7.196;2022-10-16T04:58:37;3.57;;;1.10;;
1048;SDS011;513;51.444;7.196;2022-10-16T05:01:04;1.70;;;1.37;;
1048;SDS011;513;51.444;7.196;2022-10-16T05:03:30;2.03;;;1.30;;
1048;SDS011;513;51.444;7.196;2022-10-16T05:05:57;5.07;;;1.63;;
1048;SDS011;513;51.444;7.196;2022-10-16T05:08:25;1.53;;;1.43;;
1048;SDS011;513;51.444;7.196;2022-10-16T05:10:52;2.90;;;1.40;;
1048;SDS011;513;51.444;7.196;2022-10-16T05:13:18;2.13;;;1.50;;
1048;SDS011;513;51.444;7.196;2022-10-16T05:15:46;4.47;;;1.50;;
1048;SDS011;513;51.444;7.196;2022-10-16T05:18:13;2.77;;;1.40;;
1048;SDS011;513;51.444;7.196;2022-10-16T05:20:40;6.37;;;1.47;;
1048;SDS011;513;51.444;7.196;2022-10-16T05:23:07;3.87;;;1.20;;
1048;SDS011;513;51.444;7.196;2022-10-16T05:25:36;2.23;;;1.20;;
1048;SDS011;513;51.444;7.196;2022-10-16T05:28:03;4.63;;;1.50;;
1048;SDS011;513;51.444;7.196;2022-10-16T05:30:30;1.57;;;1.30;;
1048;SDS011;513;51.444;7.196;2022-10-16T05:32:56;2.23;;;1.50;;
1048;SDS011;513;51.444;7.196;2022-10-16T05:35:23;1.70;;;1.50;;
1048;SDS011;513;51.444;7.196;2022-10-16T05:37:50;2.30;;;1.60;;
1048;SDS011;513;51.444;7.196;2022-10-16T05:40:16;1.97;;;1.40;;
1048;SDS011;513;51.444;7.196;2022-10-16T05:42:44;1.70;;;1.43;;
1048;SDS011;513;51.444;7.196;2022-10-16T05:45:11;2.97;;;1.37;;
1048;SDS011;513;51.444;7.196;2022-10-16T05:47:38;2.73;;;1.30;;
1048;SDS011;513;51.444;7.196;2022-10-16T05:50:05;1.93;;;1.63;;
1048;SDS011;513;51.444;7.196;2022-10-16T05:52:32;2.37;;;1.70;;
1048;SDS011;513;51.444;7.196;2022-10-16T05:54:58;1.83;;;1.27;;
1048;SDS011;513;51.444;7.196;2022-10-16T05:57:25;1.50;;;1.40;;
1048;SDS011;513;51.444;7.196;2022-10-16T05:59:53;4.10;;;1.60;;
1048;SDS011;513;51.444;7.196;2022-10-16T06:02:20;2.13;;;1.70;;
1048;SDS011;513;51.444;7.196;2022-10-16T06:04:47;3.37;;;1.40;;
1048;SDS011;513;51.444;7.196;2022-10-16T06:07:14;2.57;;;1.40;;
1048;SDS011;513;51.444;7.196;2022-10-16T06:09:41;2.57;;;1.33;;
1048;SDS011;513;51.444;7.196;2022-10-16T06:12:07;1.63;;;1.53;;
1048;SDS011;513;51.444;7.196;2022-10-16T06:14:34;2.40;;;1.63;;
1048;SDS011;513;51.444;7.196;2022-10-16T06:17:02;5.00;;;1.60;;
1048;SDS011;513;51.444;7.196;2022-10-16T06:19:29;3.50;;;1.83;;
1048;SDS011;513;51.444;7.196;2022-10-16T06:21:56;3.70;;;1.80;;
1048;SDS011;513;51.444;7.196;2022-10-16T06:24:23;2.00;;;1.50;;
1048;SDS011;513;51.444;7.196;2022-10-16T06:26:50;5.20;;;1.50;;
1048;SDS011;513;51.444;7.196;2022-10-16T06:29:17;2.17;;;1.30;;
1048;SDS011;513;51.444;7.196;2022-10-16T06:31:43;2.63;;;1.50;;
1048;SDS011;513;51.444;7.196;2022-10-16T06:34:11;3.83;;;1.73;;
1048;SDS011;513;51.444;7.196;2022-10-16T06:36:38;2.23;;;1.70;;
1048;SDS011;513;51.444;7.196;2022-10-16T06:39:05;2.10;;;1.90;;
1048;SDS011;513;51.444;7.196;2022-10-16T06:41:32;3.50;;;2.20;;
1048;SDS011;513;51.444;7.196;2022-10-16T06:43:59;2.87;;;1.90;;
1048;SDS011;513;51.444;7.196;2022-10-16T06:46:26;2.10;;;1.90;;
1048;SDS011;513;51.444;7.196;2022-10-16T06:48:53;3.63;;;1.97;;
1048;SDS011;513;51.444;7.196;2022-10-16T06:51:22;2.13;;;1.40;;
1048;SDS011;513;51.444;7.196;2022-10-16T06:53:50;2.63;;;1.63;;
1048;SDS011;513;51.444;7.196;2022-10-16T06:56:18;3.27;;;1.50;;
1048;SDS011;513;51.444;7.196;2022-10-16T06:58:46;4.10;;;1.43;;
1048;SDS011;513;51.444;7.196;2022-10-16T07:01:14;3.83;;;1.70;;
1048;SDS011;513;51.444;7.196;2022-10-16T07:03:42;4.60;;;1.57;;
1048;SDS011;513;51.444;7.196;2022-10-16T07:06:11;2.30;;;1.80;;
1048;SDS011;513;51.444;7.196;2022-10-16T07:08:41;1.73;;;1.33;;
1048;SDS011;513;51.444;7.196;2022-10-16T07:11:10;4.93;;;1.83;;
1048;SDS011;513;51.444;7.196;2022-10-16T07:13:38;4.30;;;1.70;;
1048;SDS011;513;51.444;7.196;2022-10-16T07:16:07;2.70;;;1.70;;
1048;SDS011;513;51.444;7.196;2022-10-16T07:18:36;4.37;;;1.97;;
1048;SDS011;513;51.444;7.196;2022-10-16T07:21:05;4.00;;;1.63;;
1048;SDS011;513;51.444;7.196;2022-10-16T07:23:33;2.27;;;1.60;;
1048;SDS011;513;51.444;7.196;2022-10-16T07:26:01;2.07;;;1.60;;
1048;SDS011;513;51.444;7.196;2022-10-16T07:28:28;3.43;;;1.63;;
1048;SDS011;513;51.444;7.196;2022-10-16T07:30:59;1.80;;;1.37;;
1048;SDS011;513;51.444;7.196;2022-10-16T07:33:27;2.97;;;1.53;;
1048;SDS011;513;51.444;7.196;2022-10-16T07:35:54;3.10;;;1.50;;
1048;SDS011;513;51.444;7.196;2022-10-16T07:38:21;1.90;;;1.70;;
1048;SDS011;513;51.444;7.196;2022-10-16T07:40:55;6.47;;;2.00;;
1048;SDS011;513;51.444;7.196;2022-10-16T07:43:24;3.93;;;1.80;;
1048;SDS011;513;51.444;7.196;2022-10-16T07:45:51;3.67;;;1.90;;
1048;SDS011;513;51.444;7.196;2022-10-16T07:48:18;2.17;;;1.77;;
1048;SDS011;513;51.444;7.196;2022-10-16T07:50:45;2.83;;;1.40;;
1048;SDS011;513;51.444;7.196;2022-10-16T07:53:12;2.60;;;1.57;;
1048;SDS011;513;51.444;7.196;2022-10-16T07:55:39;7.43;;;1.40;;
1048;SDS011;513;51.444;7.196;2022-10-16T07:58:06;2.13;;;1.83;;
1048;SDS011;513;51.444;7.196;2022-10-16T08:00:35;4.20;;;1.70;;
1048;SDS011;513;51.444;7.196;2022-10-16T08:03:02;6.07;;;1.50;;
1048;SDS011;513;51.444;7.196;2022-10-16T08:05:31;2.33;;;1.63;;
1048;SDS011;513;51.444;7.196;2022-10-16T08:07:59;4.03;;;1.60;;
1048;SDS011;513;51.444;7.196;2022-10-16T08:10:27;3.13;;;1.40;;
1048;SDS011;513;51.444;7.196;2022-10-16T08:12:54;1.40;;;1.30;;
1048;SDS011;513;51.444;7.196;2022-10-16T08:15:21;2.03;;;1.30;;
1048;SDS011;513;51.444;7.196;2022-10-16T08:17:55;2.60;;;1.47;;
1048;SDS011;513;51.444;7.196;2022-10-16T08:20:22;2.17;;;1.50;;
1048;SDS011;513;51.444;7.196;2022-10-16T08:22:49;2.17;;;1.30;;
1048;SDS011;513;51.444;7.196;2022-10-16T08:25:16;2.33;;;1.27;;
1048;SDS011;513;51.444;7.196;2022-10-16T08:27:42;2.90;;;1.17;;
1048;SDS011;513;51.444;7.196;2022-10-16T08:30:10;1.93;;;1.17;;
1048;SDS011;513;51.444;7.196;2022-10-16T08:32:37;8.57;;;4.17;;
1048;SDS011;513;51.444;7.196;2022-10-16T08:35:05;2.50;;;1.00;;
1048;SDS011;513;51.444;7.196;2022-10-16T08:37:32;1.67;;;1.20;;
1048;SDS011;513;51.444;7.196;2022-10-16T08:39:59;1.83;;;1.07;;
1048;SDS011;513;51.444;7.196;2022-10-16T08:42:29;3.07;;;0.87;;
1048;SDS011;513;51.444;7.196;2022-10-16T08:45:08;3.00;;;0.90;;
1048;SDS011;513;51.444;7.196;2022-10-16T08:47:48;6.80;;;1.13;;
1048;SDS011;513;51.444;7.196;2022-10-16T08:50:21;2.10;;;0.83;;
1048;SDS011;513;51.444;7.196;2022-10-16T08:52:50;1.40;;;0.80;;
1048;SDS011;513;51.444;7.196;2022-10-16T08:55:19;2.17;;;0.70;;
1048;SDS011;513;51.444;7.196;2022-10-16T08:58:05;2.77;;;0.90;;
1048;SDS011;513;51.444;7.196;2022-10-16T09:00:39;3.90;;;0.83;;
1048;SDS011;513;51.444;7.196;2022-10-16T09:03:07;3.87;;;0.90;;
1048;SDS011;513;51.444;7.196;2022-10-16T09:05:54;1.47;;;0.77;;
1048;SDS011;513;51.444;7.196;2022-10-16T09:08:38;2.97;;;0.60;;
1048;SDS011;513;51.444;7.196;2022-10-16T09:11:14;7.53;;;1.27;;
1048;SDS011;513;51.444;7.196;2022-10-16T09:13:50;4.80;;;1.10;;
1048;SDS011;513;51.444;7.196;2022-10-16T09:16:24;2.73;;;1.00;;
1048;SDS011;513;51.444;7.196;2022-10-16T09:18:54;1.77;;;0.67;;
1048;SDS011;513;51.444;7.196;2022-10-16T09:21:28;2.43;;;0.90;;
1048;SDS011;513;51.444;7.196;2022-10-16T09:23:57;1.93;;;1.00;;
1048;SDS011;513;51.444;7.196;2022-10-16T09:26:30;3.53;;;0.93;;
1048;SDS011;513;51.444;7.196;2022-10-16T09:28:57;1.70;;;0.73;;
1048;SDS011;513;51.444;7.196;2022-10-16T09:31:24;3.60;;;1.03;;
1048;SDS011;513;51.444;7.196;2022-10-16T09:33:52;1.67;;;0.80;;
1048;SDS011;513;51.444;7.196;2022-10-16T09:36:24;4.57;;;0.80;;
1048;SDS011;513;51.444;7.196;2022-10-16T09:39:02;2.80;;;0.90;;
1048;SDS011;513;51.444;7.196;2022-10-16T09:41:30;3.47;;;0.97;;
1048;SDS011;513;51.444;7.196;2022-10-16T09:44:00;3.43;;;1.10;;
1048;SDS011;513;51.444;7.196;2022-10-16T09:46:30;1.87;;;0.70;;
1048;SDS011;513;51.444;7.196;2022-10-16T09:48:59;3.67;;;0.87;;
1048;SDS011;513;51.444;7.196;2022-10-16T09:51:29;0.90;;;0.70;;
1048;SDS011;513;51.444;7.196;2022-10-16T09:53:58;2.60;;;1.00;;
1048;SDS011;513;51.444;7.196;2022-10-16T09:56:28;1.33;;;0.60;;
1048;SDS011;513;51.444;7.196;2022-10-16T09:58:58;0.90;;;0.57;;
1048;SDS011;513;51.444;7.196;2022-10-16T10:01:27;3.47;;;1.00;;
1048;SDS011;513;51.444;7.196;2022-10-16T10:03:57;5.43;;;1.47;;
1048;SDS011;513;51.444;7.196;2022-10-16T10:06:28;2.87;;;1.07;;
1048;SDS011;513;51.444;7.196;2022-10-16T10:08:58;5.73;;;2.00;;
1048;SDS011;513;51.444;7.196;2022-10-16T10:11:42;5.40;;;1.30;;
1048;SDS011;513;51.444;7.196;2022-10-16T10:14:16;0.83;;;0.70;;
1048;SDS011;513;51.444;7.196;2022-10-16T10:16:46;1.50;;;0.70;;
1048;SDS011;513;51.444;7.196;2022-10-16T10:19:14;2.67;;;0.50;;
1048;SDS011;513;51.444;7.196;2022-10-16T10:21:43;3.70;;;0.93;;
1048;SDS011;513;51.444;7.196;2022-10-16T10:24:10;2.60;;;0.70;;
1048;SDS011;513;51.444;7.196;2022-10-16T10:26:38;4.30;;;0.70;;
1048;SDS011;513;51.444;7.196;2022-10-16T10:29:14;1.77;;;0.67;;
1048;SDS011;513;51.444;7.196;2022-10-16T10:31:49;1.83;;;0.60;;
1048;SDS011;513;51.444;7.196;2022-10-16T10:34:26;2.80;;;0.70;;
1048;SDS011;513;51.444;7.196;2022-10-16T10:37:10;3.47;;;0.83;;
1048;SDS011;513;51.444;7.196;2022-10-16T10:39:49;2.70;;;0.73;;
1048;SDS011;513;51.444;7.196;2022-10-16T10:42:25;1.57;;;0.50;;
1048;SDS011;513;51.444;7.196;2022-10-16T10:44:59;1.73;;;0.67;;
1048;SDS011;513;51.444;7.196;2022-10-16T10:47:44;3.43;;;0.70;;
1048;SDS011;513;51.444;7.196;2022-10-16T10:50:20;1.87;;;0.50;;
1048;SDS011;513;51.444;7.196;2022-10-16T10:52:58;1.83;;;0.60;;
1048;SDS011;513;51.444;7.196;2022-10-16T10:55:31;6.90;;;0.77;;
1048;SDS011;513;51.444;7.196;2022-10-16T10:58:13;1.47;;;0.50;;
1048;SDS011;513;51.444;7.196;2022-10-16T11:01:00;1.90;;;0.50;;
1048;SDS011;513;51.444;7.196;2022-10-16T11:03:36;2.50;;;0.50;;
1048;SDS011;513;51.444;7.196;2022-10-16T11:06:14;0.97;;;0.53;;
1048;SDS011;513;51.444;7.196;2022-10-16T11:08:45;4.57;;;0.63;;
1048;SDS011;513;51.444;7.196;2022-10-16T11:11:15;3.57;;;0.90;;
1048;SDS011;513;51.444;7.196;2022-10-16T11:13:49;1.07;;;0.40;;
1048;SDS011;513;51.444;7.196;2022-10-16T11:16:23;1.60;;;0.40;;
1048;SDS011;513;51.444;7.196;2022-10-16T11:18:55;3.07;;;0.73;;
1048;SDS011;513;51.444;7.196;2022-10-16T11:21:29;3.77;;;0.70;;
1048;SDS011;513;51.444;7.196;2022-10-16T11:24:01;1.17;;;0.67;;
1048;SDS011;513;51.444;7.196;2022-10-16T11:26:38;1.90;;;0.50;;
1048;SDS011;513;51.444;7.196;2022-10-16T11:29:10;2.23;;;0.50;;
1048;SDS011;513;51.444;7.196;2022-10-16T11:31:43;3.03;;;0.60;;
1048;SDS011;513;51.444;7.196;2022-10-16T11:34:17;1.10;;;0.60;;
1048;SDS011;513;51.444;7.196;2022-10-16T11:36:49;2.77;;;0.80;;
1048;SDS011;513;51.444;7.196;2022-10-16T11:39:20;2.40;;;0.40;;
1048;SDS011;513;51.444;7.196;2022-10-16T11:41:50;2.97;;;0.57;;
1048;SDS011;513;51.444;7.196;2022-10-16T11:44:24;2.23;;;0.53;;
1048;SDS011;513;51.444;7.196;2022-10-16T11:47:01;5.53;;;0.70;;
1048;SDS011;513;51.444;7.196;2022-10-16T11:49:37;3.47;;;1.90;;
1048;SDS011;513;51.444;7.196;2022-10-16T11:52:07;5.13;;;2.70;;
1048;SDS011;513;51.444;7.196;2022-10-16T11:54:43;0.90;;;0.67;;
1048;SDS011;513;51.444;7.196;2022-10-16T11:57:15;1.03;;;0.50;;
1048;SDS011;513;51.444;7.196;2022-10-16T11:59:48;2.43;;;0.50;;
1048;SDS011;513;51.444;7.196;2022-10-16T12:02:27;3.40;;;0.57;;
1048;SDS011;513;51.444;7.196;2022-10-16T12:07:51;0.70;;;0.60;;
1048;SDS011;513;51.444;7.196;2022-10-16T12:10:28;3.50;;;0.70;;
1048;SDS011;513;51.444;7.196;2022-10-16T12:12:57;4.17;;;0.50;;
1048;SDS011;513;51.444;7.196;2022-10-16T12:15:25;2.60;;;0.47;;
1048;SDS011;513;51.444;7.196;2022-10-16T12:17:54;3.60;;;0.70;;
1048;SDS011;513;51.444;7.196;2022-10-16T12:20:22;1.90;;;0.63;;
1048;SDS011;513;51.444;7.196;2022-10-16T12:22:53;2.53;;;0.80;;
1048;SDS011;513;51.444;7.196;2022-10-16T12:25:22;3.60;;;0.60;;
1048;SDS011;513;51.444;7.196;2022-10-16T12:28:00;1.17;;;0.50;;
1048;SDS011;513;51.444;7.196;2022-10-16T12:30:31;2.23;;;0.90;;
1048;SDS011;513;51.444;7.196;2022-10-16T12:33:00;3.13;;;0.50;;
1048;SDS011;513;51.444;7.196;2022-10-16T12:35:29;6.70;;;0.87;;
1048;SDS011;513;51.444;7.196;2022-10-16T12:38:08;4.57;;;0.83;;
1048;SDS011;513;51.444;7.196;2022-10-16T12:40:42;4.33;;;0.70;;
1048;SDS011;513;51.444;7.196;2022-10-16T12:43:11;3.90;;;0.47;;
1048;SDS011;513;51.444;7.196;2022-10-16T12:45:59;1.37;;;0.57;;
1048;SDS011;513;51.444;7.196;2022-10-16T12:48:28;3.17;;;0.60;;
1048;SDS011;513;51.444;7.196;2022-10-16T12:50:55;3.73;;;1.80;;
1048;SDS011;513;51.444;7.196;2022-10-16T12:53:23;0.63;;;0.43;;
1048;SDS011;513;51.444;7.196;2022-10-16T12:55:54;2.00;;;0.63;;
1048;SDS011;513;51.444;7.196;2022-10-16T12:58:33;2.07;;;0.60;;
1048;SDS011;513;51.444;7.196;2022-10-16T13:01:25;1.00;;;0.40;;
1048;SDS011;513;51.444;7.196;2022-10-16T13:06:58;2.00;;;0.87;;
1048;SDS011;513;51.444;7.196;2022-10-16T13:09:47;1.70;;;0.60;;
1048;SDS011;513;51.444;7.196;2022-10-16T13:12:46;0.73;;;0.57;;
1048;SDS011;513;51.444;7.196;2022-10-16T13:15:30;2.67;;;0.70;;
1048;SDS011;513;51.444;7.196;2022-10-16T13:18:15;0.97;;;0.40;;
1048;SDS011;513;51.444;7.196;2022-10-16T13:20:51;2.17;;;0.50;;
1048;SDS011;513;51.444;7.196;2022-10-16T13:23:26;1.13;;;0.50;;
1048;SDS011;513;51.444;7.196;2022-10-16T13:26:00;2.43;;;0.60;;
1048;SDS011;513;51.444;7.196;2022-10-16T13:28:39;1.33;;;0.50;;
1048;SDS011;513;51.444;7.196;2022-10-16T13:31:09;3.00;;;0.60;;
1048;SDS011;513;51.444;7.196;2022-10-16T13:33:45;3.17;;;0.70;;
1048;SDS011;513;51.444;7.196;2022-10-16T13:36:20;4.13;;;0.50;;
1048;SDS011;513;51.444;7.196;2022-10-16T13:38:48;4.20;;;0.60;;
1048;SDS011;513;51.444;7.196;2022-10-16T13:41:25;3.97;;;0.60;;
1048;SDS011;513;51.444;7.196;2022-10-16T13:43:52;3.27;;;0.70;;
1048;SDS011;513;51.444;7.196;2022-10-16T13:46:22;3.40;;;0.50;;
1048;SDS011;513;51.444;7.196;2022-10-16T13:48:57;2.30;;;0.50;;
1048;SDS011;513;51.444;7.196;2022-10-16T13:51:26;1.30;;;0.53;;
1048;SDS011;513;51.444;7.196;2022-10-16T13:53:54;1.27;;;0.50;;
1048;SDS011;513;51.444;7.196;2022-10-16T13:56:22;1.67;;;0.70;;
1048;SDS011;513;51.444;7.196;2022-10-16T13:58:58;2.50;;;0.90;;
1048;SDS011;513;51.444;7.196;2022-10-16T14:01:26;1.90;;;0.53;;
1048;SDS011;513;51.444;7.196;2022-10-16T14:04:00;0.80;;;0.60;;
1048;SDS011;513;51.444;7.196;2022-10-16T14:06:30;0.93;;;0.43;;
1048;SDS011;513;51.444;7.196;2022-10-16T14:08:59;6.27;;;0.60;;
1048;SDS011;513;51.444;7.196;2022-10-16T14:11:28;1.90;;;0.67;;
1048;SDS011;513;51.444;7.196;2022-10-16T14:13:55;2.27;;;0.50;;
1048;SDS011;513;51.444;7.196;2022-10-16T14:16:22;3.00;;;0.60;;
1048;SDS011;513;51.444;7.196;2022-10-16T14:18:55;1.40;;;0.50;;
1048;SDS011;513;51.444;7.196;2022-10-16T14:21:26;1.47;;;0.53;;
1048;SDS011;513;51.444;7.196;2022-10-16T14:23:54;2.20;;;1.40;;
1048;SDS011;513;51.444;7.196;2022-10-16T14:26:21;3.93;;;1.53;;
1048;SDS011;513;51.444;7.196;2022-10-16T14:29:01;5.37;;;2.83;;
1048;SDS011;513;51.444;7.196;2022-10-16T14:31:36;3.10;;;1.00;;
1048;SDS011;513;51.444;7.196;2022-10-16T14:34:04;1.77;;;0.90;;
1048;SDS011;513;51.444;7.196;2022-10-16T14:36:47;2.83;;;1.03;;
1048;SDS011;513;51.444;7.196;2022-10-16T14:39:16;2.33;;;0.87;;
1048;SDS011;513;51.444;7.196;2022-10-16T14:41:47;1.67;;;0.60;;
1048;SDS011;513;51.444;7.196;2022-10-16T14:44:16;2.77;;;0.80;;
1048;SDS011;513;51.444;7.196;2022-10-16T14:46:44;2.27;;;0.67;;
1048;SDS011;513;51.444;7.196;2022-10-16T14:49:14;0.97;;;0.70;;
1048;SDS011;513;51.444;7.196;2022-10-16T14:51:44;0.60;;;0.60;;
1048;SDS011;513;51.444;7.196;2022-10-16T14:54:13;1.10;;;0.70;;
1048;SDS011;513;51.444;7.196;2022-10-16T14:56:43;7.03;;;3.00;;
1048;SDS011;513;51.444;7.196;2022-10-16T14:59:13;3.57;;;1.60;;
1048;SDS011;513;51.444;7.196;2022-10-16T15:01:42;3.33;;;1.47;;
1048;SDS011;513;51.444;7.196;2022-10-16T15:04:09;3.67;;;1.73;;
1048;SDS011;513;51.444;7.196;2022-10-16T15:06:38;3.97;;;1.00;;
1048;SDS011;513;51.444;7.196;2022-10-16T15:09:05;3.37;;;0.90;;
1048;SDS011;513;51.444;7.196;2022-10-16T15:11:33;2.07;;;0.70;;
1048;SDS011;513;51.444;7.196;2022-10-16T15:14:00;6.03;;;0.70;;
1048;SDS011;513;51.444;7.196;2022-10-16T15:16:28;1.07;;;0.63;;
1048;SDS011;513;51.444;7.196;2022-10-16T15:18:55;3.87;;;1.00;;
1048;SDS011;513;51.444;7.196;2022-10-16T15:21:22;3.13;;;0.80;;
1048;SDS011;513;51.444;7.196;2022-10-16T15:23:51;3.30;;;0.87;;
1048;SDS011;513;51.444;7.196;2022-10-16T15:26:17;7.50;;;1.10;;
1048;SDS011;513;51.444;7.196;2022-10-16T15:28:45;4.90;;;1.40;;
1048;SDS011;513;51.444;7.196;2022-10-16T15:31:12;2.57;;;1.17;;
1048;SDS011;513;51.444;7.196;2022-10-16T15:33:39;1.63;;;1.10;;
1048;SDS011;513;51.444;7.196;2022-10-16T15:36:06;1.97;;;1.17;;
1048;SDS011;513;51.444;7.196;2022-10-16T15:38:33;1.60;;;1.00;;
1048;SDS011;513;51.444;7.196;2022-10-16T15:41:00;6.47;;;1.00;;
1048;SDS011;513;51.444;7.196;2022-10-16T15:43:27;2.60;;;0.87;;
1048;SDS011;513;51.444;7.196;2022-10-16T15:45:59;2.93;;;0.80;;
1048;SDS011;513;51.444;7.196;2022-10-16T15:48:28;4.37;;;1.00;;
1048;SDS011;513;51.444;7.196;2022-10-16T15:50:55;4.37;;;1.10;;
1048;SDS011;513;51.444;7.196;2022-10-16T15:53:22;4.57;;;1.20;;